sensor_id;sensor_type;location;lat;lon;timestamp;pressure;altitude;pressure_sealevel;temperature;humidity
67373;BME280;54257;54.496;18.412;2023-05-14T00:02:04;100585.11;;;12.75;51.82
67373;BME280;54257;54.496;18.412;2023-05-14T00:04:31;100587.11;;;12.71;52.05
67373;BME280;54257;54.496;18.412;2023-05-14T00:06:57;100587.70;;;12.67;52.16
67373;BME280;54257;54.496;18.412;2023-05-14T00:09:24;100584.89;;;12.62;52.05
67373;BME280;54257;54.496;18.412;2023-05-14T00:11:51;100586.16;;;12.57;52.20
67373;BME280;54257;54.496;18.412;2023-05-14T00:14:18;100586.39;;;12.51;52.46
67373;BME280;54257;54.496;18.412;2023-05-14T00:16:45;100584.05;;;12.45;52.67
67373;BME280;54257;54.496;18.412;2023-05-14T00:19:12;100582.92;;;12.40;52.78
67373;BME280;54257;54.496;18.412;2023-05-14T00:21:39;100581.48;;;12.36;52.95
67373;BME280;54257;54.496;18.412;2023-05-14T00:24:06;100586.59;;;12.34;53.22
67373;BME280;54257;54.496;18.412;2023-05-14T00:26:33;100582.09;;;12.32;53.40
67373;BME280;54257;54.496;18.412;2023-05-14T00:29:00;100583.36;;;12.27;53.40
67373;BME280;54257;54.496;18.412;2023-05-14T00:31:27;100584.14;;;12.23;53.53
67373;BME280;54257;54.496;18.412;2023-05-14T00:33:53;100584.22;;;12.19;53.83
67373;BME280;54257;54.496;18.412;2023-05-14T00:36:20;100589.27;;;12.14;53.65
67373;BME280;54257;54.496;18.412;2023-05-14T00:38:47;100593.51;;;12.04;53.90
67373;BME280;54257;54.496;18.412;2023-05-14T00:41:14;100591.36;;;11.91;53.98
67373;BME280;54257;54.496;18.412;2023-05-14T00:43:47;100587.10;;;11.85;54.09
67373;BME280;54257;54.496;18.412;2023-05-14T00:46:14;100584.77;;;11.80;54.19
67373;BME280;54257;54.496;18.412;2023-05-14T00:48:43;100587.23;;;11.75;54.30
67373;BME280;54257;54.496;18.412;2023-05-14T00:51:10;100583.02;;;11.72;54.45
67373;BME280;54257;54.496;18.412;2023-05-14T00:53:37;100585.31;;;11.66;54.71
67373;BME280;54257;54.496;18.412;2023-05-14T00:56:04;100586.17;;;11.59;54.83
67373;BME280;54257;54.496;18.412;2023-05-14T00:58:32;100588.06;;;11.52;54.94
67373;BME280;54257;54.496;18.412;2023-05-14T01:00:59;100586.42;;;11.47;55.19
67373;BME280;54257;54.496;18.412;2023-05-14T01:03:26;100586.84;;;11.43;55.11
67373;BME280;54257;54.496;18.412;2023-05-14T01:14:53;100572.96;;;11.21;55.95
67373;BME280;54257;54.496;18.412;2023-05-14T01:17:24;100583.02;;;11.19;55.86
67373;BME280;54257;54.496;18.412;2023-05-14T01:19:54;100585.90;;;11.11;56.45
67373;BME280;54257;54.496;18.412;2023-05-14T01:22:21;100583.73;;;11.06;56.48
67373;BME280;54257;54.496;18.412;2023-05-14T01:24:48;100579.73;;;11.04;56.42
67373;BME280;54257;54.496;18.412;2023-05-14T01:27:30;100576.36;;;10.99;56.54
67373;BME280;54257;54.496;18.412;2023-05-14T01:32:55;100576.81;;;10.96;56.66
67373;BME280;54257;54.496;18.412;2023-05-14T01:35:26;100572.61;;;10.92;56.97
67373;BME280;54257;54.496;18.412;2023-05-14T01:37:55;100575.71;;;10.86;56.76
67373;BME280;54257;54.496;18.412;2023-05-14T01:40:24;100570.46;;;10.82;57.03
67373;BME280;54257;54.496;18.412;2023-05-14T01:42:52;100571.91;;;10.78;57.18
67373;BME280;54257;54.496;18.412;2023-05-14T01:45:20;100569.14;;;10.77;57.27
67373;BME280;54257;54.496;18.412;2023-05-14T01:47:47;100566.77;;;10.77;57.38
67373;BME280;54257;54.496;18.412;2023-05-14T01:50:14;100564.11;;;10.74;57.42
67373;BME280;54257;54.496;18.412;2023-05-14T01:52:40;100562.98;;;10.70;57.43
67373;BME280;54257;54.496;18.412;2023-05-14T01:55:07;100560.67;;;10.66;57.54
67373;BME280;54257;54.496;18.412;2023-05-14T01:57:34;100559.39;;;10.63;57.74
67373;BME280;54257;54.496;18.412;2023-05-14T02:00:01;100560.89;;;10.61;57.80
67373;BME280;54257;54.496;18.412;2023-05-14T02:02:29;100561.85;;;10.59;58.00
67373;BME280;54257;54.496;18.412;2023-05-14T02:04:57;100561.55;;;10.54;58.25
67373;BME280;54257;54.496;18.412;2023-05-14T02:07:23;100558.88;;;10.50;58.27
67373;BME280;54257;54.496;18.412;2023-05-14T02:09:50;100565.30;;;10.48;58.39
67373;BME280;54257;54.496;18.412;2023-05-14T02:12:17;100561.91;;;10.42;58.34
67373;BME280;54257;54.496;18.412;2023-05-14T02:14:44;100563.54;;;10.39;58.32
67373;BME280;54257;54.496;18.412;2023-05-14T02:17:13;100561.58;;;10.36;58.56
67373;BME280;54257;54.496;18.412;2023-05-14T02:19:43;100558.23;;;10.33;58.84
67373;BME280;54257;54.496;18.412;2023-05-14T02:22:10;100557.99;;;10.30;59.12
67373;BME280;54257;54.496;18.412;2023-05-14T02:24:37;100552.79;;;10.26;59.37
67373;BME280;54257;54.496;18.412;2023-05-14T02:27:06;100556.14;;;10.25;59.62
67373;BME280;54257;54.496;18.412;2023-05-14T02:29:33;100553.66;;;10.21;59.75
67373;BME280;54257;54.496;18.412;2023-05-14T02:32:02;100551.98;;;10.17;60.02
67373;BME280;54257;54.496;18.412;2023-05-14T02:34:29;100550.84;;;10.13;59.79
67373;BME280;54257;54.496;18.412;2023-05-14T02:37:02;100549.74;;;10.10;59.81
67373;BME280;54257;54.496;18.412;2023-05-14T02:39:35;100548.64;;;10.08;60.09
67373;BME280;54257;54.496;18.412;2023-05-14T02:42:02;100547.06;;;10.06;60.06
67373;BME280;54257;54.496;18.412;2023-05-14T02:44:28;100549.09;;;10.05;60.28
67373;BME280;54257;54.496;18.412;2023-05-14T02:46:57;100548.18;;;10.03;60.65
67373;BME280;54257;54.496;18.412;2023-05-14T02:49:24;100546.55;;;10.00;60.69
67373;BME280;54257;54.496;18.412;2023-05-14T02:51:50;100548.56;;;9.99;60.52
67373;BME280;54257;54.496;18.412;2023-05-14T02:54:19;100545.48;;;9.99;60.55
67373;BME280;54257;54.496;18.412;2023-05-14T02:56:46;100550.06;;;9.98;60.90
67373;BME280;54257;54.496;18.412;2023-05-14T02:59:13;100544.89;;;9.96;60.88
67373;BME280;54257;54.496;18.412;2023-05-14T03:01:40;100545.91;;;9.96;60.90
67373;BME280;54257;54.496;18.412;2023-05-14T03:04:08;100546.39;;;9.94;61.15
67373;BME280;54257;54.496;18.412;2023-05-14T03:06:35;100546.54;;;9.94;61.59
67373;BME280;54257;54.496;18.412;2023-05-14T03:09:02;100547.74;;;9.88;61.49
67373;BME280;54257;54.496;18.412;2023-05-14T03:11:28;100546.84;;;9.87;61.68
67373;BME280;54257;54.496;18.412;2023-05-14T03:13:55;100545.72;;;9.83;61.71
67373;BME280;54257;54.496;18.412;2023-05-14T03:16:22;100546.20;;;9.82;61.47
67373;BME280;54257;54.496;18.412;2023-05-14T03:18:49;100547.21;;;9.81;61.79
67373;BME280;54257;54.496;18.412;2023-05-14T03:21:16;100544.25;;;9.79;61.83
67373;BME280;54257;54.496;18.412;2023-05-14T03:23:45;100545.77;;;9.79;61.81
67373;BME280;54257;54.496;18.412;2023-05-14T03:26:12;100541.17;;;9.79;62.07
67373;BME280;54257;54.496;18.412;2023-05-14T03:28:39;100539.33;;;9.80;62.14
67373;BME280;54257;54.496;18.412;2023-05-14T03:31:06;100540.89;;;9.81;62.32
67373;BME280;54257;54.496;18.412;2023-05-14T03:33:33;100539.04;;;9.82;62.41
67373;BME280;54257;54.496;18.412;2023-05-14T03:35:59;100539.23;;;9.83;62.51
67373;BME280;54257;54.496;18.412;2023-05-14T03:38:26;100534.95;;;9.82;62.55
67373;BME280;54257;54.496;18.412;2023-05-14T03:40:53;100534.84;;;9.85;62.54
67373;BME280;54257;54.496;18.412;2023-05-14T03:43:21;100530.61;;;9.85;62.93
67373;BME280;54257;54.496;18.412;2023-05-14T03:45:47;100530.08;;;9.85;63.24
67373;BME280;54257;54.496;18.412;2023-05-14T03:48:18;100528.42;;;9.86;63.37
67373;BME280;54257;54.496;18.412;2023-05-14T03:50:45;100522.16;;;9.88;63.43
67373;BME280;54257;54.496;18.412;2023-05-14T03:53:12;100520.87;;;9.92;63.54
67373;BME280;54257;54.496;18.412;2023-05-14T03:55:39;100521.83;;;9.95;63.82
67373;BME280;54257;54.496;18.412;2023-05-14T03:58:08;100516.45;;;9.98;64.13
67373;BME280;54257;54.496;18.412;2023-05-14T04:00:40;100513.78;;;10.00;64.32
67373;BME280;54257;54.496;18.412;2023-05-14T04:03:07;100510.98;;;10.03;64.62
67373;BME280;54257;54.496;18.412;2023-05-14T04:05:34;100512.27;;;10.07;64.71
67373;BME280;54257;54.496;18.412;2023-05-14T04:08:01;100512.38;;;10.11;65.31
67373;BME280;54257;54.496;18.412;2023-05-14T04:10:30;100514.50;;;10.14;65.62
67373;BME280;54257;54.496;18.412;2023-05-14T04:12:57;100517.27;;;10.16;66.19
67373;BME280;54257;54.496;18.412;2023-05-14T04:15:24;100517.25;;;10.15;66.63
67373;BME280;54257;54.496;18.412;2023-05-14T04:17:51;100518.11;;;10.15;67.05
67373;BME280;54257;54.496;18.412;2023-05-14T04:20:18;100519.04;;;10.18;67.23
67373;BME280;54257;54.496;18.412;2023-05-14T04:22:45;100520.23;;;10.23;67.49
67373;BME280;54257;54.496;18.412;2023-05-14T04:25:11;100521.60;;;10.29;67.82
67373;BME280;54257;54.496;18.412;2023-05-14T04:27:38;100515.45;;;10.35;67.95
67373;BME280;54257;54.496;18.412;2023-05-14T04:30:06;100515.00;;;10.44;67.69
67373;BME280;54257;54.496;18.412;2023-05-14T04:32:34;100515.02;;;10.52;67.77
67373;BME280;54257;54.496;18.412;2023-05-14T04:35:01;100515.39;;;10.59;67.81
67373;BME280;54257;54.496;18.412;2023-05-14T04:37:28;100516.83;;;10.69;68.10
67373;BME280;54257;54.496;18.412;2023-05-14T04:39:55;100515.32;;;10.77;67.92
67373;BME280;54257;54.496;18.412;2023-05-14T04:42:22;100518.09;;;10.85;68.09
67373;BME280;54257;54.496;18.412;2023-05-14T04:44:49;100517.27;;;10.93;68.68
67373;BME280;54257;54.496;18.412;2023-05-14T04:47:16;100519.67;;;11.01;69.40
67373;BME280;54257;54.496;18.412;2023-05-14T04:49:43;100517.64;;;11.09;70.29
67373;BME280;54257;54.496;18.412;2023-05-14T04:52:10;100520.58;;;11.18;71.18
67373;BME280;54257;54.496;18.412;2023-05-14T04:54:37;100516.14;;;11.26;71.45
67373;BME280;54257;54.496;18.412;2023-05-14T04:57:04;100516.15;;;11.34;71.68
67373;BME280;54257;54.496;18.412;2023-05-14T04:59:33;100509.52;;;11.43;72.08
67373;BME280;54257;54.496;18.412;2023-05-14T05:02:00;100509.94;;;11.55;72.18
67373;BME280;54257;54.496;18.412;2023-05-14T05:04:27;100503.30;;;11.64;71.85
67373;BME280;54257;54.496;18.412;2023-05-14T05:06:54;100500.41;;;11.74;71.85
67373;BME280;54257;54.496;18.412;2023-05-14T05:09:21;100499.33;;;11.86;72.01
67373;BME280;54257;54.496;18.412;2023-05-14T05:11:47;100497.16;;;11.98;71.76
67373;BME280;54257;54.496;18.412;2023-05-14T05:14:14;100499.31;;;12.12;71.76
67373;BME280;54257;54.496;18.412;2023-05-14T05:16:41;100496.48;;;12.25;71.30
67373;BME280;54257;54.496;18.412;2023-05-14T05:19:08;100493.98;;;12.40;71.07
67373;BME280;54257;54.496;18.412;2023-05-14T05:21:35;100492.72;;;12.54;70.66
67373;BME280;54257;54.496;18.412;2023-05-14T05:24:02;100489.70;;;12.69;70.23
67373;BME280;54257;54.496;18.412;2023-05-14T05:26:28;100489.12;;;12.85;70.09
67373;BME280;54257;54.496;18.412;2023-05-14T05:28:58;100485.59;;;13.02;69.69
67373;BME280;54257;54.496;18.412;2023-05-14T05:31:25;100488.15;;;13.22;69.32
67373;BME280;54257;54.496;18.412;2023-05-14T05:33:51;100483.73;;;13.50;68.90
67373;BME280;54257;54.496;18.412;2023-05-14T05:36:23;100477.85;;;13.73;68.95
67373;BME280;54257;54.496;18.412;2023-05-14T05:38:54;100479.95;;;14.06;68.48
67373;BME280;54257;54.496;18.412;2023-05-14T05:41:22;100478.58;;;14.41;67.58
67373;BME280;54257;54.496;18.412;2023-05-14T05:43:52;100478.91;;;14.76;66.83
67373;BME280;54257;54.496;18.412;2023-05-14T05:46:19;100475.19;;;15.10;66.03
67373;BME280;54257;54.496;18.412;2023-05-14T05:48:45;100468.34;;;15.45;64.93
67373;BME280;54257;54.496;18.412;2023-05-14T05:51:12;100475.08;;;15.85;62.38
67373;BME280;54257;54.496;18.412;2023-05-14T05:53:39;100472.60;;;16.21;60.86
67373;BME280;54257;54.496;18.412;2023-05-14T05:56:07;100470.04;;;16.61;61.58
67373;BME280;54257;54.496;18.412;2023-05-14T05:58:34;100465.55;;;17.07;59.47
67373;BME280;54257;54.496;18.412;2023-05-14T06:01:03;100464.06;;;17.47;58.22
67373;BME280;54257;54.496;18.412;2023-05-14T06:03:31;100463.73;;;17.88;56.78
67373;BME280;54257;54.496;18.412;2023-05-14T06:05:58;100464.92;;;18.24;55.13
67373;BME280;54257;54.496;18.412;2023-05-14T06:08:24;100461.05;;;18.57;54.33
67373;BME280;54257;54.496;18.412;2023-05-14T06:10:51;100459.73;;;18.91;52.41
67373;BME280;54257;54.496;18.412;2023-05-14T06:13:18;100454.69;;;19.27;51.67
67373;BME280;54257;54.496;18.412;2023-05-14T06:15:45;100457.85;;;19.70;50.35
67373;BME280;54257;54.496;18.412;2023-05-14T06:18:12;100458.17;;;20.10;48.69
67373;BME280;54257;54.496;18.412;2023-05-14T06:20:39;100454.29;;;20.39;47.12
67373;BME280;54257;54.496;18.412;2023-05-14T06:23:07;100451.39;;;20.69;45.66
67373;BME280;54257;54.496;18.412;2023-05-14T06:25:34;100447.71;;;21.00;44.78
67373;BME280;54257;54.496;18.412;2023-05-14T06:28:01;100448.80;;;21.35;44.01
67373;BME280;54257;54.496;18.412;2023-05-14T06:30:28;100447.70;;;21.72;43.33
67373;BME280;54257;54.496;18.412;2023-05-14T06:32:55;100445.97;;;21.96;42.10
67373;BME280;54257;54.496;18.412;2023-05-14T06:35:22;100443.88;;;22.20;41.76
67373;BME280;54257;54.496;18.412;2023-05-14T06:37:49;100444.61;;;22.47;39.89
67373;BME280;54257;54.496;18.412;2023-05-14T06:40:17;100440.05;;;22.56;37.40
67373;BME280;54257;54.496;18.412;2023-05-14T06:42:56;100439.59;;;22.74;37.76
67373;BME280;54257;54.496;18.412;2023-05-14T06:45:25;100436.79;;;22.95;37.97
67373;BME280;54257;54.496;18.412;2023-05-14T06:47:57;100435.86;;;23.23;37.40
67373;BME280;54257;54.496;18.412;2023-05-14T06:50:24;100433.92;;;23.42;35.74
67373;BME280;54257;54.496;18.412;2023-05-14T06:52:53;100432.63;;;23.57;35.70
67373;BME280;54257;54.496;18.412;2023-05-14T06:55:20;100433.23;;;23.73;34.96
67373;BME280;54257;54.496;18.412;2023-05-14T06:57:47;100430.21;;;23.86;34.95
67373;BME280;54257;54.496;18.412;2023-05-14T07:00:16;100431.53;;;24.11;35.00
67373;BME280;54257;54.496;18.412;2023-05-14T07:02:43;100432.42;;;24.33;33.86
67373;BME280;54257;54.496;18.412;2023-05-14T07:05:10;100428.02;;;24.45;33.52
67373;BME280;54257;54.496;18.412;2023-05-14T07:07:38;100430.67;;;24.70;33.64
67373;BME280;54257;54.496;18.412;2023-05-14T07:10:05;100433.20;;;24.88;32.44
67373;BME280;54257;54.496;18.412;2023-05-14T07:12:33;100426.81;;;25.01;31.84
67373;BME280;54257;54.496;18.412;2023-05-14T07:15:34;100428.02;;;25.07;31.53
67373;BME280;54257;54.496;18.412;2023-05-14T07:18:40;100427.89;;;25.20;31.27
67373;BME280;54257;54.496;18.412;2023-05-14T07:21:24;100423.20;;;25.34;30.67
67373;BME280;54257;54.496;18.412;2023-05-14T07:24:28;100427.04;;;25.19;30.53
67373;BME280;54257;54.496;18.412;2023-05-14T07:27:16;100424.52;;;25.31;30.34
67373;BME280;54257;54.496;18.412;2023-05-14T07:29:43;100421.64;;;25.24;29.85
67373;BME280;54257;54.496;18.412;2023-05-14T07:32:10;100420.98;;;25.32;30.25
67373;BME280;54257;54.496;18.412;2023-05-14T07:34:37;100421.95;;;25.53;30.24
67373;BME280;54257;54.496;18.412;2023-05-14T07:37:04;100420.50;;;25.68;29.71
67373;BME280;54257;54.496;18.412;2023-05-14T07:39:31;100420.11;;;25.92;29.76
67373;BME280;54257;54.496;18.412;2023-05-14T07:41:59;100418.13;;;26.11;28.66
67373;BME280;54257;54.496;18.412;2023-05-14T07:44:29;100416.61;;;26.23;29.19
67373;BME280;54257;54.496;18.412;2023-05-14T07:46:56;100413.11;;;26.36;28.67
67373;BME280;54257;54.496;18.412;2023-05-14T07:49:23;100415.19;;;26.58;28.06
67373;BME280;54257;54.496;18.412;2023-05-14T07:51:50;100414.03;;;26.76;28.04
67373;BME280;54257;54.496;18.412;2023-05-14T07:54:17;100411.17;;;26.82;26.40
67373;BME280;54257;54.496;18.412;2023-05-14T07:56:51;100411.03;;;26.73;26.98
67373;BME280;54257;54.496;18.412;2023-05-14T07:59:18;100406.58;;;26.75;27.31
67373;BME280;54257;54.496;18.412;2023-05-14T08:01:45;100406.78;;;26.86;26.91
67373;BME280;54257;54.496;18.412;2023-05-14T08:04:12;100405.00;;;26.83;26.65
67373;BME280;54257;54.496;18.412;2023-05-14T08:06:44;100404.82;;;26.91;26.82
67373;BME280;54257;54.496;18.412;2023-05-14T08:09:25;100400.42;;;27.12;27.11
67373;BME280;54257;54.496;18.412;2023-05-14T08:11:52;100402.80;;;27.33;26.98
67373;BME280;54257;54.496;18.412;2023-05-14T08:14:19;100398.45;;;27.43;25.70
67373;BME280;54257;54.496;18.412;2023-05-14T08:16:47;100399.17;;;27.43;25.81
67373;BME280;54257;54.496;18.412;2023-05-14T08:19:14;100398.70;;;27.49;25.49
67373;BME280;54257;54.496;18.412;2023-05-14T08:21:41;100396.63;;;27.38;25.35
67373;BME280;54257;54.496;18.412;2023-05-14T08:24:11;100398.61;;;27.44;25.72
67373;BME280;54257;54.496;18.412;2023-05-14T08:26:38;100397.20;;;27.63;25.70
67373;BME280;54257;54.496;18.412;2023-05-14T08:29:04;100399.86;;;27.74;24.87
67373;BME280;54257;54.496;18.412;2023-05-14T08:31:31;100397.83;;;27.69;24.52
67373;BME280;54257;54.496;18.412;2023-05-14T08:33:59;100395.35;;;27.69;24.61
67373;BME280;54257;54.496;18.412;2023-05-14T08:36:26;100396.58;;;27.80;24.93
67373;BME280;54257;54.496;18.412;2023-05-14T08:38:54;100393.70;;;27.96;25.19
67373;BME280;54257;54.496;18.412;2023-05-14T08:41:24;100395.17;;;28.09;24.57
67373;BME280;54257;54.496;18.412;2023-05-14T08:44:00;100391.46;;;28.13;24.57
67373;BME280;54257;54.496;18.412;2023-05-14T08:46:36;100393.80;;;28.16;24.50
67373;BME280;54257;54.496;18.412;2023-05-14T08:49:45;100386.41;;;28.12;24.87
67373;BME280;54257;54.496;18.412;2023-05-14T08:52:49;100378.69;;;28.37;24.93
67373;BME280;54257;54.496;18.412;2023-05-14T08:55:19;100382.07;;;28.47;24.49
67373;BME280;54257;54.496;18.412;2023-05-14T08:58:13;100379.00;;;28.20;23.18
67373;BME280;54257;54.496;18.412;2023-05-14T09:00:40;100382.45;;;28.11;23.80
67373;BME280;54257;54.496;18.412;2023-05-14T09:03:10;100372.85;;;28.27;24.39
67373;BME280;54257;54.496;18.412;2023-05-14T09:05:48;100372.88;;;28.51;24.20
67373;BME280;54257;54.496;18.412;2023-05-14T09:08:17;100366.83;;;28.63;23.81
67373;BME280;54257;54.496;18.412;2023-05-14T09:10:45;100367.02;;;28.72;23.89
67373;BME280;54257;54.496;18.412;2023-05-14T09:13:12;100372.39;;;28.61;23.27
67373;BME280;54257;54.496;18.412;2023-05-14T09:15:38;100370.42;;;28.51;22.62
67373;BME280;54257;54.496;18.412;2023-05-14T09:18:06;100362.98;;;28.52;23.27
67373;BME280;54257;54.496;18.412;2023-05-14T09:20:33;100362.70;;;28.57;22.87
67373;BME280;54257;54.496;18.412;2023-05-14T09:23:00;100363.71;;;28.52;22.80
67373;BME280;54257;54.496;18.412;2023-05-14T09:25:31;100357.38;;;28.69;22.07
67373;BME280;54257;54.496;18.412;2023-05-14T09:27:58;100357.70;;;28.76;21.58
67373;BME280;54257;54.496;18.412;2023-05-14T09:30:25;100355.86;;;28.67;21.01
67373;BME280;54257;54.496;18.412;2023-05-14T09:32:53;100358.17;;;28.22;20.52
67373;BME280;54257;54.496;18.412;2023-05-14T09:35:22;100355.69;;;28.05;21.73
67373;BME280;54257;54.496;18.412;2023-05-14T09:37:52;100356.58;;;27.68;20.45
67373;BME280;54257;54.496;18.412;2023-05-14T09:40:21;100346.69;;;27.58;21.97
67373;BME280;54257;54.496;18.412;2023-05-14T09:42:48;100351.08;;;27.84;22.54
67373;BME280;54257;54.496;18.412;2023-05-14T09:45:15;100346.36;;;28.05;21.76
67373;BME280;54257;54.496;18.412;2023-05-14T09:47:42;100347.98;;;28.18;21.58
67373;BME280;54257;54.496;18.412;2023-05-14T09:50:10;100343.76;;;27.75;21.33
67373;BME280;54257;54.496;18.412;2023-05-14T09:52:37;100343.84;;;27.44;21.17
67373;BME280;54257;54.496;18.412;2023-05-14T09:55:05;100337.55;;;27.09;21.39
67373;BME280;54257;54.496;18.412;2023-05-14T09:57:32;100334.95;;;27.08;22.45
67373;BME280;54257;54.496;18.412;2023-05-14T10:00:00;100336.27;;;27.18;21.86
67373;BME280;54257;54.496;18.412;2023-05-14T10:02:35;100330.98;;;27.07;21.91
67373;BME280;54257;54.496;18.412;2023-05-14T10:05:04;100330.98;;;26.99;22.14
67373;BME280;54257;54.496;18.412;2023-05-14T10:07:43;100328.86;;;26.83;22.49
67373;BME280;54257;54.496;18.412;2023-05-14T10:10:18;100323.91;;;26.77;21.98
67373;BME280;54257;54.496;18.412;2023-05-14T10:12:50;100323.14;;;26.82;23.04
67373;BME280;54257;54.496;18.412;2023-05-14T10:15:25;100319.92;;;26.79;22.31
67373;BME280;54257;54.496;18.412;2023-05-14T10:17:59;100312.43;;;27.02;22.96
67373;BME280;54257;54.496;18.412;2023-05-14T10:20:29;100312.49;;;27.24;22.76
67373;BME280;54257;54.496;18.412;2023-05-14T10:22:59;100306.52;;;27.39;22.42
67373;BME280;54257;54.496;18.412;2023-05-14T10:25:26;100302.73;;;27.59;22.69
67373;BME280;54257;54.496;18.412;2023-05-14T10:27:54;100301.12;;;27.75;22.47
67373;BME280;54257;54.496;18.412;2023-05-14T10:30:21;100301.44;;;27.93;22.46
67373;BME280;54257;54.496;18.412;2023-05-14T10:36:03;100301.91;;;28.15;22.07
67373;BME280;54257;54.496;18.412;2023-05-14T10:38:33;100300.14;;;28.27;22.26
67373;BME280;54257;54.496;18.412;2023-05-14T10:41:09;100298.48;;;28.31;22.39
67373;BME280;54257;54.496;18.412;2023-05-14T10:43:38;100293.73;;;28.39;22.49
67373;BME280;54257;54.496;18.412;2023-05-14T10:46:06;100292.36;;;28.45;21.83
67373;BME280;54257;54.496;18.412;2023-05-14T10:48:35;100291.17;;;28.47;22.31
67373;BME280;54257;54.496;18.412;2023-05-14T10:51:02;100290.80;;;28.44;22.34
67373;BME280;54257;54.496;18.412;2023-05-14T10:56:11;100284.02;;;28.56;22.73
67373;BME280;54257;54.496;18.412;2023-05-14T10:58:42;100276.65;;;28.63;22.95
67373;BME280;54257;54.496;18.412;2023-05-14T11:01:12;100276.88;;;28.68;22.72
67373;BME280;54257;54.496;18.412;2023-05-14T11:03:41;100270.57;;;28.74;22.70
67373;BME280;54257;54.496;18.412;2023-05-14T11:06:11;100269.15;;;28.64;22.48
67373;BME280;54257;54.496;18.412;2023-05-14T11:08:39;100267.39;;;28.27;22.95
67373;BME280;54257;54.496;18.412;2023-05-14T11:11:07;100261.02;;;28.32;23.14
67373;BME280;54257;54.496;18.412;2023-05-14T11:13:35;100252.61;;;28.31;23.53
67373;BME280;54257;54.496;18.412;2023-05-14T11:16:02;100250.71;;;28.34;24.00
67373;BME280;54257;54.496;18.412;2023-05-14T11:18:30;100244.83;;;28.49;23.89
67373;BME280;54257;54.496;18.412;2023-05-14T11:21:06;100246.48;;;28.51;23.81
67373;BME280;54257;54.496;18.412;2023-05-14T11:23:33;100241.38;;;28.68;23.75
67373;BME280;54257;54.496;18.412;2023-05-14T11:26:01;100247.84;;;28.78;23.71
67373;BME280;54257;54.496;18.412;2023-05-14T11:28:28;100250.21;;;28.83;23.51
67373;BME280;54257;54.496;18.412;2023-05-14T11:30:55;100251.81;;;28.83;23.55
67373;BME280;54257;54.496;18.412;2023-05-14T11:33:22;100251.95;;;28.83;23.86
67373;BME280;54257;54.496;18.412;2023-05-14T11:35:49;100250.07;;;28.76;23.56
67373;BME280;54257;54.496;18.412;2023-05-14T11:38:17;100252.41;;;28.52;23.75
67373;BME280;54257;54.496;18.412;2023-05-14T11:40:55;100252.90;;;28.15;23.52
67373;BME280;54257;54.496;18.412;2023-05-14T11:43:23;100250.88;;;27.71;23.60
67373;BME280;54257;54.496;18.412;2023-05-14T11:45:51;100247.16;;;27.44;24.46
67373;BME280;54257;54.496;18.412;2023-05-14T11:48:22;100248.88;;;27.15;24.54
67373;BME280;54257;54.496;18.412;2023-05-14T11:50:50;100246.24;;;26.84;24.49
67373;BME280;54257;54.496;18.412;2023-05-14T11:53:25;100247.18;;;26.64;24.80
67373;BME280;54257;54.496;18.412;2023-05-14T11:55:53;100248.86;;;26.34;25.09
67373;BME280;54257;54.496;18.412;2023-05-14T11:58:21;100245.56;;;26.12;25.14
67373;BME280;54257;54.496;18.412;2023-05-14T12:00:59;100237.52;;;25.96;25.65
67373;BME280;54257;54.496;18.412;2023-05-14T12:03:26;100235.54;;;25.97;25.76
67373;BME280;54257;54.496;18.412;2023-05-14T12:05:58;100232.04;;;26.17;26.03
67373;BME280;54257;54.496;18.412;2023-05-14T12:08:28;100226.37;;;26.47;25.69
67373;BME280;54257;54.496;18.412;2023-05-14T12:10:57;100222.39;;;26.65;25.81
67373;BME280;54257;54.496;18.412;2023-05-14T12:13:45;100220.55;;;26.83;25.65
67373;BME280;54257;54.496;18.412;2023-05-14T12:16:15;100212.73;;;27.08;25.61
67373;BME280;54257;54.496;18.412;2023-05-14T12:18:43;100204.35;;;27.29;25.57
67373;BME280;54257;54.496;18.412;2023-05-14T12:21:10;100199.05;;;27.48;25.25
67373;BME280;54257;54.496;18.412;2023-05-14T12:23:38;100200.80;;;27.69;25.38
67373;BME280;54257;54.496;18.412;2023-05-14T12:26:08;100197.06;;;27.77;24.70
67373;BME280;54257;54.496;18.412;2023-05-14T12:28:37;100196.77;;;27.58;24.28
67373;BME280;54257;54.496;18.412;2023-05-14T12:31:08;100194.90;;;27.53;24.94
67373;BME280;54257;54.496;18.412;2023-05-14T12:33:35;100190.48;;;27.57;24.92
67373;BME280;54257;54.496;18.412;2023-05-14T12:36:02;100191.34;;;27.54;24.64
67373;BME280;54257;54.496;18.412;2023-05-14T12:38:30;100190.17;;;27.50;24.78
67373;BME280;54257;54.496;18.412;2023-05-14T12:40:57;100191.79;;;27.38;24.60
67373;BME280;54257;54.496;18.412;2023-05-14T12:43:24;100190.05;;;27.01;24.41
67373;BME280;54257;54.496;18.412;2023-05-14T12:45:57;100188.34;;;26.63;24.28
67373;BME280;54257;54.496;18.412;2023-05-14T12:48:23;100188.91;;;26.30;24.82
67373;BME280;54257;54.496;18.412;2023-05-14T12:50:50;100180.77;;;26.28;25.66
67373;BME280;54257;54.496;18.412;2023-05-14T12:53:17;100175.85;;;26.56;26.03
67373;BME280;54257;54.496;18.412;2023-05-14T12:55:45;100172.55;;;26.78;25.55
67373;BME280;54257;54.496;18.412;2023-05-14T12:58:12;100166.98;;;26.96;25.62
67373;BME280;54257;54.496;18.412;2023-05-14T13:00:39;100166.06;;;27.15;25.65
67373;BME280;54257;54.496;18.412;2023-05-14T13:03:06;100164.06;;;27.31;25.19
67373;BME280;54257;54.496;18.412;2023-05-14T13:05:32;100161.29;;;27.44;25.56
67373;BME280;54257;54.496;18.412;2023-05-14T13:07:59;100159.09;;;27.53;24.38